sensor_id;sensor_type;location;lat;lon;timestamp;pressure;altitude;pressure_sealevel;temperature;humidity
61742;BME280;47650;49.848;9.620;2022-12-10T00:01:24;98525.16;;;3.12;66.32
61742;BME280;47650;49.848;9.620;2022-12-10T00:03:51;98528.00;;;3.20;66.91
61742;BME280;47650;49.848;9.620;2022-12-10T00:06:20;98515.13;;;3.29;66.45
61742;BME280;47650;49.848;9.620;2022-12-10T00:08:46;98530.66;;;3.42;66.58
61742;BME280;47650;49.848;9.620;2022-12-10T00:11:13;98529.56;;;3.44;66.65
61742;BME280;47650;49.848;9.620;2022-12-10T00:13:39;98536.91;;;3.50;66.41
61742;BME280;47650;49.848;9.620;2022-12-10T00:16:07;98534.06;;;3.53;66.38
61742;BME280;47650;49.848;9.620;2022-12-10T00:18:39;98538.31;;;3.54;66.29
61742;BME280;47650;49.848;9.620;2022-12-10T00:21:08;98539.88;;;3.57;65.79
61742;BME280;47650;49.848;9.620;2022-12-10T00:23:35;98448.78;;;3.07;66.28
61742;BME280;47650;49.848;9.620;2022-12-10T00:26:10;98532.59;;;3.61;66.06
61742;BME280;47650;49.848;9.620;2022-12-10T00:28:35;98535.06;;;3.62;66.27
61742;BME280;47650;49.848;9.620;2022-12-10T00:31:04;98533.66;;;3.58;65.97
61742;BME280;47650;49.848;9.620;2022-12-10T00:33:31;98511.41;;;3.52;65.87
61742;BME280;47650;49.848;9.620;2022-12-10T00:36:06;98520.25;;;3.51;65.89
61742;BME280;47650;49.848;9.620;2022-12-10T00:38:32;98515.25;;;3.48;65.58
61742;BME280;47650;49.848;9.620;2022-12-10T00:40:58;98535.19;;;3.61;65.65
61742;BME280;47650;49.848;9.620;2022-12-10T00:43:24;98529.97;;;3.61;65.92
61742;BME280;47650;49.848;9.620;2022-12-10T00:45:54;98530.22;;;3.57;65.79
61742;BME280;47650;49.848;9.620;2022-12-10T00:48:20;98527.97;;;3.53;65.65
61742;BME280;47650;49.848;9.620;2022-12-10T00:51:36;98518.78;;;3.37;65.56
61742;BME280;47650;49.848;9.620;2022-12-10T00:53:45;98546.69;;;3.48;65.37
61742;BME280;47650;49.848;9.620;2022-12-10T00:56:26;98547.78;;;3.46;65.34
61742;BME280;47650;49.848;9.620;2022-12-10T00:58:59;98547.78;;;3.46;65.44
61742;BME280;47650;49.848;9.620;2022-12-10T01:01:28;98543.75;;;3.42;65.63
61742;BME280;47650;49.848;9.620;2022-12-10T01:03:56;98546.94;;;3.45;65.78
61742;BME280;47650;49.848;9.620;2022-12-10T01:06:27;98545.28;;;3.44;65.78
61742;BME280;47650;49.848;9.620;2022-12-10T01:08:59;98503.00;;;3.16;65.67
61742;BME280;47650;49.848;9.620;2022-12-10T01:11:30;98557.09;;;3.38;66.05
61742;BME280;47650;49.848;9.620;2022-12-10T01:13:58;98545.78;;;3.38;65.80
61742;BME280;47650;49.848;9.620;2022-12-10T01:16:24;98546.50;;;3.40;66.11
61742;BME280;47650;49.848;9.620;2022-12-10T01:18:53;98533.00;;;3.24;66.48
61742;BME280;47650;49.848;9.620;2022-12-10T01:21:19;98519.69;;;3.15;66.25
61742;BME280;47650;49.848;9.620;2022-12-10T01:23:47;98548.19;;;3.30;66.32
61742;BME280;47650;49.848;9.620;2022-12-10T01:26:21;98561.53;;;3.27;66.04
61742;BME280;47650;49.848;9.620;2022-12-10T01:28:47;98553.03;;;3.13;66.09
61742;BME280;47650;49.848;9.620;2022-12-10T01:33:42;98556.50;;;3.03;66.02
61742;BME280;47650;49.848;9.620;2022-12-10T01:36:23;98569.97;;;2.98;66.20
61742;BME280;47650;49.848;9.620;2022-12-10T01:38:50;98566.66;;;2.85;66.50
61742;BME280;47650;49.848;9.620;2022-12-10T01:41:32;98568.34;;;2.74;66.34
61742;BME280;47650;49.848;9.620;2022-12-10T01:44:01;98578.59;;;2.66;66.80
61742;BME280;47650;49.848;9.620;2022-12-10T01:46:34;98576.81;;;2.55;66.77
61742;BME280;47650;49.848;9.620;2022-12-10T01:49:04;98583.13;;;2.53;67.08
61742;BME280;47650;49.848;9.620;2022-12-10T01:51:33;98581.81;;;2.47;66.91
61742;BME280;47650;49.848;9.620;2022-12-10T01:53:59;98570.28;;;2.38;67.09
61742;BME280;47650;49.848;9.620;2022-12-10T01:56:25;98587.31;;;2.44;67.17
61742;BME280;47650;49.848;9.620;2022-12-10T01:58:52;98586.94;;;2.37;67.41
61742;BME280;47650;49.848;9.620;2022-12-10T02:01:52;98585.50;;;2.33;67.28
61742;BME280;47650;49.848;9.620;2022-12-10T02:10:31;98512.69;;;1.59;67.90
61742;BME280;47650;49.848;9.620;2022-12-10T02:15:44;98596.38;;;1.93;68.38
61742;BME280;47650;49.848;9.620;2022-12-10T02:18:22;98558.03;;;1.58;68.36
61742;BME280;47650;49.848;9.620;2022-12-10T02:20:58;98598.81;;;1.72;68.34
61742;BME280;47650;49.848;9.620;2022-12-10T02:23:49;98600.56;;;1.60;68.19
61742;BME280;47650;49.848;9.620;2022-12-10T02:26:39;98598.84;;;1.48;68.40
61742;BME280;47650;49.848;9.620;2022-12-10T02:29:15;98557.75;;;1.15;68.74
61742;BME280;47650;49.848;9.620;2022-12-10T02:31:48;98573.81;;;1.21;69.00
61742;BME280;47650;49.848;9.620;2022-12-10T02:34:17;98595.53;;;1.22;69.29
61742;BME280;47650;49.848;9.620;2022-12-10T02:36:46;98589.81;;;1.17;69.03
61742;BME280;47650;49.848;9.620;2022-12-10T02:39:18;98591.19;;;1.09;69.14
61742;BME280;47650;49.848;9.620;2022-12-10T02:41:49;98600.06;;;1.07;69.53
61742;BME280;47650;49.848;9.620;2022-12-10T02:44:17;98597.81;;;1.02;69.48
61742;BME280;47650;49.848;9.620;2022-12-10T02:46:45;98600.75;;;0.61;69.74
61742;BME280;47650;49.848;9.620;2022-12-10T02:49:14;98600.44;;;0.52;72.11
61742;BME280;47650;49.848;9.620;2022-12-10T02:51:40;98610.03;;;0.39;73.29
61742;BME280;47650;49.848;9.620;2022-12-10T03:08:25;98604.28;;;0.60;72.73
61742;BME280;47650;49.848;9.620;2022-12-10T03:11:14;98595.41;;;0.49;72.37
61742;BME280;47650;49.848;9.620;2022-12-10T03:13:50;98607.41;;;0.52;72.37
61742;BME280;47650;49.848;9.620;2022-12-10T03:16:20;98597.41;;;0.46;71.86
61742;BME280;47650;49.848;9.620;2022-12-10T03:18:52;98586.88;;;0.34;72.20
61742;BME280;47650;49.848;9.620;2022-12-10T03:21:20;98588.75;;;0.32;72.10
61742;BME280;47650;49.848;9.620;2022-12-10T03:23:48;98601.91;;;0.18;71.78
61742;BME280;47650;49.848;9.620;2022-12-10T03:26:14;98587.94;;;0.06;72.46
61742;BME280;47650;49.848;9.620;2022-12-10T03:28:46;98576.38;;;-0.03;73.37
61742;BME280;47650;49.848;9.620;2022-12-10T03:31:13;98575.09;;;0.03;73.55
61742;BME280;47650;49.848;9.620;2022-12-10T03:33:39;98580.13;;;0.06;73.38
61742;BME280;47650;49.848;9.620;2022-12-10T03:36:06;98589.38;;;0.10;73.73
61742;BME280;47650;49.848;9.620;2022-12-10T03:38:33;98593.16;;;0.06;73.62
61742;BME280;47650;49.848;9.620;2022-12-10T03:40:58;98586.66;;;-0.14;73.20
61742;BME280;47650;49.848;9.620;2022-12-10T03:43:24;98592.31;;;-0.07;74.47
61742;BME280;47650;49.848;9.620;2022-12-10T03:45:49;98594.63;;;-0.15;73.64
61742;BME280;47650;49.848;9.620;2022-12-10T03:48:15;98580.81;;;-0.17;73.67
61742;BME280;47650;49.848;9.620;2022-12-10T03:50:42;98593.13;;;-0.20;73.63
61742;BME280;47650;49.848;9.620;2022-12-10T03:53:07;98583.53;;;-0.32;73.11
61742;BME280;47650;49.848;9.620;2022-12-10T03:55:34;98593.13;;;-0.32;72.70
61742;BME280;47650;49.848;9.620;2022-12-10T03:57:59;98589.97;;;-0.38;72.84
61742;BME280;47650;49.848;9.620;2022-12-10T04:00:25;98580.28;;;-0.48;73.31
61742;BME280;47650;49.848;9.620;2022-12-10T04:02:50;98588.28;;;-0.51;72.71
61742;BME280;47650;49.848;9.620;2022-12-10T04:05:16;98595.16;;;-0.50;72.58
61742;BME280;47650;49.848;9.620;2022-12-10T04:07:42;98582.41;;;-0.68;73.21
61742;BME280;47650;49.848;9.620;2022-12-10T04:10:11;98585.63;;;-0.64;73.39
61742;BME280;47650;49.848;9.620;2022-12-10T04:12:41;98600.78;;;-0.57;73.03
61742;BME280;47650;49.848;9.620;2022-12-10T04:15:07;98561.84;;;-0.85;73.83
61742;BME280;47650;49.848;9.620;2022-12-10T04:17:51;98600.13;;;-0.60;73.54
61742;BME280;47650;49.848;9.620;2022-12-10T04:20:17;98600.25;;;-0.62;73.79
61742;BME280;47650;49.848;9.620;2022-12-10T04:23:02;98599.69;;;-0.67;72.82
61742;BME280;47650;49.848;9.620;2022-12-10T04:25:45;98601.75;;;-0.72;73.50
61742;BME280;47650;49.848;9.620;2022-12-10T04:28:30;98595.47;;;-0.82;73.74
61742;BME280;47650;49.848;9.620;2022-12-10T04:30:58;98599.34;;;-0.75;73.56
61742;BME280;47650;49.848;9.620;2022-12-10T04:33:23;98529.56;;;-1.37;74.06
61742;BME280;47650;49.848;9.620;2022-12-10T04:35:49;98597.78;;;-0.78;74.27
61742;BME280;47650;49.848;9.620;2022-12-10T04:38:14;98596.94;;;-0.78;74.35
61742;BME280;47650;49.848;9.620;2022-12-10T04:40:44;98591.00;;;-0.80;73.48
61742;BME280;47650;49.848;9.620;2022-12-10T04:43:09;98601.59;;;-0.83;74.00
61742;BME280;47650;49.848;9.620;2022-12-10T04:45:34;98597.53;;;-0.87;73.61
61742;BME280;47650;49.848;9.620;2022-12-10T04:48:01;98604.44;;;-0.86;73.35
61742;BME280;47650;49.848;9.620;2022-12-10T04:50:28;98599.41;;;-0.89;73.38
61742;BME280;47650;49.848;9.620;2022-12-10T04:52:54;98601.81;;;-0.86;73.89
61742;BME280;47650;49.848;9.620;2022-12-10T04:55:19;98600.03;;;-0.86;73.20
61742;BME280;47650;49.848;9.620;2022-12-10T04:57:45;98492.09;;;-1.47;73.79
61742;BME280;47650;49.848;9.620;2022-12-10T05:00:10;98604.56;;;-0.75;74.16
61742;BME280;47650;49.848;9.620;2022-12-10T05:02:36;98603.22;;;-0.68;73.57
61742;BME280;47650;49.848;9.620;2022-12-10T05:05:01;98600.97;;;-0.60;73.28
61742;BME280;47650;49.848;9.620;2022-12-10T05:07:27;98604.84;;;-0.52;73.97
61742;BME280;47650;49.848;9.620;2022-12-10T05:09:52;98572.53;;;-0.63;73.76
61742;BME280;47650;49.848;9.620;2022-12-10T05:12:18;98610.41;;;-0.31;73.82
61742;BME280;47650;49.848;9.620;2022-12-10T05:14:43;98608.94;;;-0.23;74.07
61742;BME280;47650;49.848;9.620;2022-12-10T05:17:09;98610.13;;;-0.14;73.38
61742;BME280;47650;49.848;9.620;2022-12-10T05:19:34;98610.44;;;-0.06;73.36
61742;BME280;47650;49.848;9.620;2022-12-10T05:21:59;98615.06;;;0.04;73.31
61742;BME280;47650;49.848;9.620;2022-12-10T05:24:43;98613.59;;;0.12;73.49
61742;BME280;47650;49.848;9.620;2022-12-10T05:27:08;98615.78;;;0.18;73.73
61742;BME280;47650;49.848;9.620;2022-12-10T05:29:34;98613.50;;;0.27;73.65
61742;BME280;47650;49.848;9.620;2022-12-10T05:32:00;98618.06;;;0.36;73.16
61742;BME280;47650;49.848;9.620;2022-12-10T05:34:28;98610.66;;;0.43;73.22
61742;BME280;47650;49.848;9.620;2022-12-10T05:36:53;98605.13;;;0.47;73.14
61742;BME280;47650;49.848;9.620;2022-12-10T05:39:18;98619.94;;;0.60;72.92
61742;BME280;47650;49.848;9.620;2022-12-10T05:41:43;98611.19;;;0.61;72.81
61742;BME280;47650;49.848;9.620;2022-12-10T05:44:10;98611.97;;;0.74;72.74
61742;BME280;47650;49.848;9.620;2022-12-10T05:46:35;98623.53;;;0.83;72.98
61742;BME280;47650;49.848;9.620;2022-12-10T05:49:03;98612.97;;;0.84;73.03
61742;BME280;47650;49.848;9.620;2022-12-10T05:51:30;98621.13;;;0.92;72.76
61742;BME280;47650;49.848;9.620;2022-12-10T05:53:57;98594.72;;;0.84;72.86
61742;BME280;47650;49.848;9.620;2022-12-10T05:56:23;98623.25;;;1.11;72.67
61742;BME280;47650;49.848;9.620;2022-12-10T05:58:51;98589.69;;;0.94;72.42
61742;BME280;47650;49.848;9.620;2022-12-10T06:01:19;98628.41;;;1.24;72.59
61742;BME280;47650;49.848;9.620;2022-12-10T06:03:45;98626.31;;;1.29;71.95
61742;BME280;47650;49.848;9.620;2022-12-10T06:06:13;98623.47;;;1.33;71.89
61742;BME280;47650;49.848;9.620;2022-12-10T06:08:39;98634.31;;;1.39;71.76
61742;BME280;47650;49.848;9.620;2022-12-10T06:11:10;98628.97;;;1.41;71.66
61742;BME280;47650;49.848;9.620;2022-12-10T06:13:36;98624.59;;;1.41;71.66
61742;BME280;47650;49.848;9.620;2022-12-10T06:16:05;98628.78;;;1.44;71.66
61742;BME280;47650;49.848;9.620;2022-12-10T06:18:31;98637.09;;;1.49;71.25
61742;BME280;47650;49.848;9.620;2022-12-10T06:20:56;98629.97;;;1.51;71.39
61742;BME280;47650;49.848;9.620;2022-12-10T06:23:21;98628.09;;;1.53;71.42
61742;BME280;47650;49.848;9.620;2022-12-10T06:25:46;98634.53;;;1.60;71.57
61742;BME280;47650;49.848;9.620;2022-12-10T06:28:12;98619.16;;;1.56;71.28
61742;BME280;47650;49.848;9.620;2022-12-10T06:30:37;98637.63;;;1.65;71.19
61742;BME280;47650;49.848;9.620;2022-12-10T06:33:02;98636.22;;;1.73;71.43
61742;BME280;47650;49.848;9.620;2022-12-10T06:35:31;98640.53;;;1.74;71.28
61742;BME280;47650;49.848;9.620;2022-12-10T06:37:56;98645.06;;;1.83;71.27
61742;BME280;47650;49.848;9.620;2022-12-10T06:40:23;98641.50;;;1.84;71.42
61742;BME280;47650;49.848;9.620;2022-12-10T06:42:51;98646.25;;;1.90;71.03
61742;BME280;47650;49.848;9.620;2022-12-10T06:45:16;98648.53;;;1.95;70.95
61742;BME280;47650;49.848;9.620;2022-12-10T06:47:43;98546.75;;;1.22;70.50
61742;BME280;47650;49.848;9.620;2022-12-10T06:50:08;98663.91;;;1.99;70.74
61742;BME280;47650;49.848;9.620;2022-12-10T06:52:35;98657.97;;;1.97;70.74
61742;BME280;47650;49.848;9.620;2022-12-10T06:55:00;98647.50;;;1.97;70.89
61742;BME280;47650;49.848;9.620;2022-12-10T06:57:26;98657.72;;;2.00;70.35
61742;BME280;47650;49.848;9.620;2022-12-10T06:59:51;98657.97;;;2.09;70.44
61742;BME280;47650;49.848;9.620;2022-12-10T07:02:16;98662.75;;;2.15;70.33
61742;BME280;47650;49.848;9.620;2022-12-10T07:04:42;98674.75;;;2.17;70.03
61742;BME280;47650;49.848;9.620;2022-12-10T07:07:07;98668.59;;;2.18;69.94
61742;BME280;47650;49.848;9.620;2022-12-10T07:09:33;98660.84;;;2.17;69.80
61742;BME280;47650;49.848;9.620;2022-12-10T07:11:59;98677.38;;;2.17;69.16
61742;BME280;47650;49.848;9.620;2022-12-10T07:14:24;98652.03;;;2.06;69.14
61742;BME280;47650;49.848;9.620;2022-12-10T07:16:49;98680.59;;;2.21;69.00
61742;BME280;47650;49.848;9.620;2022-12-10T07:19:15;98673.78;;;2.07;69.36
61742;BME280;47650;49.848;9.620;2022-12-10T07:21:43;98676.06;;;2.23;69.13
61742;BME280;47650;49.848;9.620;2022-12-10T07:24:11;98677.84;;;2.22;69.20
61742;BME280;47650;49.848;9.620;2022-12-10T07:26:40;98687.28;;;2.25;68.74
61742;BME280;47650;49.848;9.620;2022-12-10T07:29:06;98688.91;;;2.26;69.33
61742;BME280;47650;49.848;9.620;2022-12-10T07:31:35;98686.91;;;2.30;69.32
61742;BME280;47650;49.848;9.620;2022-12-10T07:34:02;98692.63;;;2.35;69.16
61742;BME280;47650;49.848;9.620;2022-12-10T07:36:28;98674.69;;;2.30;68.88
61742;BME280;47650;49.848;9.620;2022-12-10T07:38:54;98690.88;;;2.47;68.94
61742;BME280;47650;49.848;9.620;2022-12-10T07:41:22;98695.75;;;2.51;68.96
61742;BME280;47650;49.848;9.620;2022-12-10T07:43:48;98698.75;;;2.58;69.15
61742;BME280;47650;49.848;9.620;2022-12-10T07:46:22;98700.88;;;2.64;69.01
61742;BME280;47650;49.848;9.620;2022-12-10T07:48:49;98695.66;;;2.53;68.36
61742;BME280;47650;49.848;9.620;2022-12-10T07:51:16;98708.97;;;2.61;68.03
61742;BME280;47650;49.848;9.620;2022-12-10T07:53:43;98699.19;;;2.52;67.17
61742;BME280;47650;49.848;9.620;2022-12-10T07:56:08;98694.06;;;2.39;67.70
61742;BME280;47650;49.848;9.620;2022-12-10T07:58:34;98677.47;;;2.16;68.23
61742;BME280;47650;49.848;9.620;2022-12-10T08:01:08;98698.94;;;2.43;68.40
61742;BME280;47650;49.848;9.620;2022-12-10T08:03:34;98704.47;;;2.63;67.93
61742;BME280;47650;49.848;9.620;2022-12-10T08:06:26;98700.66;;;2.78;68.14
61742;BME280;47650;49.848;9.620;2022-12-10T08:08:52;98673.78;;;2.65;67.79
61742;BME280;47650;49.848;9.620;2022-12-10T08:11:19;98699.09;;;2.87;67.42
61742;BME280;47650;49.848;9.620;2022-12-10T08:13:45;98700.66;;;3.01;66.96
61742;BME280;47650;49.848;9.620;2022-12-10T08:16:17;98676.38;;;2.99;67.13
61742;BME280;47650;49.848;9.620;2022-12-10T08:18:43;98715.63;;;3.33;67.14
61742;BME280;47650;49.848;9.620;2022-12-10T08:21:18;98715.38;;;3.47;66.76
61742;BME280;47650;49.848;9.620;2022-12-10T08:23:44;98712.34;;;3.63;65.94
61742;BME280;47650;49.848;9.620;2022-12-10T08:26:13;98718.84;;;3.80;65.78
61742;BME280;47650;49.848;9.620;2022-12-10T08:28:38;98715.97;;;3.94;65.02
61742;BME280;47650;49.848;9.620;2022-12-10T08:31:06;98726.19;;;3.98;63.04
61742;BME280;47650;49.848;9.620;2022-12-10T08:33:35;98714.72;;;4.31;62.99
61742;BME280;47650;49.848;9.620;2022-12-10T08:36:02;98703.97;;;4.86;62.42
61742;BME280;47650;49.848;9.620;2022-12-10T08:38:28;98689.00;;;5.68;59.93
61742;BME280;47650;49.848;9.620;2022-12-10T08:40:55;98699.75;;;6.62;58.34
61742;BME280;47650;49.848;9.620;2022-12-10T08:43:22;98689.38;;;7.36;53.90
61742;BME280;47650;49.848;9.620;2022-12-10T08:45:47;98695.16;;;7.39;53.47
61742;BME280;47650;49.848;9.620;2022-12-10T08:48:12;98693.88;;;8.07;51.42
61742;BME280;47650;49.848;9.620;2022-12-10T08:50:44;98682.38;;;9.21;49.87
61742;BME280;47650;49.848;9.620;2022-12-10T08:53:10;98690.53;;;9.95;46.40
61742;BME280;47650;49.848;9.620;2022-12-10T08:55:38;98679.75;;;10.70;45.20
61742;BME280;47650;49.848;9.620;2022-12-10T08:58:04;98679.75;;;11.58;44.52
61742;BME280;47650;49.848;9.620;2022-12-10T09:00:30;98675.53;;;11.72;41.45
61742;BME280;47650;49.848;9.620;2022-12-10T09:02:55;98689.69;;;11.24;41.72
61742;BME280;47650;49.848;9.620;2022-12-10T09:05:22;98703.91;;;10.92;43.13
61742;BME280;47650;49.848;9.620;2022-12-10T09:07:48;98682.03;;;11.61;43.84
61742;BME280;47650;49.848;9.620;2022-12-10T09:10:14;98688.22;;;11.84;42.04
61742;BME280;47650;49.848;9.620;2022-12-10T09:12:40;98681.03;;;9.59;44.00
61742;BME280;47650;49.848;9.620;2022-12-10T09:15:08;98672.94;;;9.18;45.64
61742;BME280;47650;49.848;9.620;2022-12-10T09:17:35;98704.13;;;8.72;46.91
61742;BME280;47650;49.848;9.620;2022-12-10T09:20:00;98712.88;;;7.93;48.72
61742;BME280;47650;49.848;9.620;2022-12-10T09:22:25;98709.56;;;10.15;45.82
61742;BME280;47650;49.848;9.620;2022-12-10T09:24:53;98703.28;;;10.16;43.80
61742;BME280;47650;49.848;9.620;2022-12-10T09:27:20;98703.97;;;10.34;45.66
61742;BME280;47650;49.848;9.620;2022-12-10T09:29:46;98704.44;;;11.66;43.12
61742;BME280;47650;49.848;9.620;2022-12-10T09:32:19;98698.72;;;12.47;40.21
61742;BME280;47650;49.848;9.620;2022-12-10T09:34:44;98685.56;;;12.84;37.79
61742;BME280;47650;49.848;9.620;2022-12-10T09:37:09;98684.84;;;13.34;36.82
61742;BME280;47650;49.848;9.620;2022-12-10T09:39:35;98686.94;;;14.62;37.12
61742;BME280;47650;49.848;9.620;2022-12-10T09:42:25;98679.56;;;15.34;34.75
61742;BME280;47650;49.848;9.620;2022-12-10T09:45:02;98672.56;;;15.81;32.56
61742;BME280;47650;49.848;9.620;2022-12-10T09:47:32;98674.50;;;16.34;32.01
61742;BME280;47650;49.848;9.620;2022-12-10T09:50:16;98670.31;;;16.78;31.49
61742;BME280;47650;49.848;9.620;2022-12-10T09:52:45;98668.78;;;17.36;30.35
61742;BME280;47650;49.848;9.620;2022-12-10T09:55:18;98674.88;;;14.66;33.20
61742;BME280;47650;49.848;9.620;2022-12-10T09:57:49;98681.59;;;14.12;34.39
61742;BME280;47650;49.848;9.620;2022-12-10T10:00:29;98691.41;;;12.26;38.09
61742;BME280;47650;49.848;9.620;2022-12-10T10:02:57;98685.13;;;12.42;38.14
61742;BME280;47650;49.848;9.620;2022-12-10T10:05:30;98678.50;;;13.50;37.85
61742;BME280;47650;49.848;9.620;2022-12-10T10:08:32;98689.38;;;10.30;41.88
61742;BME280;47650;49.848;9.620;2022-12-10T10:11:01;98682.22;;;10.80;42.88
61742;BME280;47650;49.848;9.620;2022-12-10T10:13:38;98686.22;;;10.51;42.32
61742;BME280;47650;49.848;9.620;2022-12-10T10:16:20;98685.66;;;10.89;43.05
61742;BME280;47650;49.848;9.620;2022-12-10T10:18:52;98681.72;;;10.85;42.63
61742;BME280;47650;49.848;9.620;2022-12-10T10:21:39;98658.03;;;13.94;38.24
61742;BME280;47650;49.848;9.620;2022-12-10T10:24:15;98623.09;;;15.37;34.98
61742;BME280;47650;49.848;9.620;2022-12-10T10:26:42;98663.56;;;16.09;33.69
61742;BME280;47650;49.848;9.620;2022-12-10T10:29:11;98655.72;;;16.67;32.71
61742;BME280;47650;49.848;9.620;2022-12-10T10:31:40;98650.78;;;16.98;32.30
61742;BME280;47650;49.848;9.620;2022-12-10T10:34:16;98622.34;;;13.88;34.12
61742;BME280;47650;49.848;9.620;2022-12-10T10:36:42;98653.66;;;14.86;35.04
61742;BME280;47650;49.848;9.620;2022-12-10T10:39:26;98656.56;;;16.34;31.84
61742;BME280;47650;49.848;9.620;2022-12-10T10:41:54;98627.69;;;15.70;32.21
61742;BME280;47650;49.848;9.620;2022-12-10T10:44:23;98616.47;;;16.14;32.53
61742;BME280;47650;49.848;9.620;2022-12-10T10:46:52;98638.13;;;17.63;30.70
61742;BME280;47650;49.848;9.620;2022-12-10T10:49:31;98656.25;;;17.16;29.83
61742;BME280;47650;49.848;9.620;2022-12-10T10:52:16;98656.34;;;15.34;31.66
61742;BME280;47650;49.848;9.620;2022-12-10T10:54:43;98626.69;;;16.91;31.66
61742;BME280;47650;49.848;9.620;2022-12-10T10:57:36;98661.69;;;14.93;34.19
61742;BME280;47650;49.848;9.620;2022-12-10T11:00:20;98653.88;;;16.88;31.85
61742;BME280;47650;49.848;9.620;2022-12-10T11:02:47;98635.59;;;18.57;28.95
61742;BME280;47650;49.848;9.620;2022-12-10T11:05:20;98649.38;;;19.42;27.98
61742;BME280;47650;49.848;9.620;2022-12-10T11:08:06;98623.78;;;19.21;27.47
61742;BME280;47650;49.848;9.620;2022-12-10T11:10:48;98638.56;;;19.11;27.73
61742;BME280;47650;49.848;9.620;2022-12-10T11:13:24;98643.22;;;19.53;26.91
61742;BME280;47650;49.848;9.620;2022-12-10T11:16:00;98664.88;;;17.25;28.89
61742;BME280;47650;49.848;9.620;2022-12-10T11:18:33;98669.09;;;16.07;30.62
61742;BME280;47650;49.848;9.620;2022-12-10T11:21:19;98630.19;;;14.46;32.45
61742;BME280;47650;49.848;9.620;2022-12-10T11:23:57;98674.88;;;13.58;34.67
61742;BME280;47650;49.848;9.620;2022-12-10T11:37:29;98673.47;;;10.22;42.66
61742;BME280;47650;49.848;9.620;2022-12-10T11:40:11;98687.38;;;10.00;43.46
61742;BME280;47650;49.848;9.620;2022-12-10T11:45:27;98695.38;;;9.49;45.08
61742;BME280;47650;49.848;9.620;2022-12-10T11:50:46;98689.44;;;9.47;45.08
61742;BME280;47650;49.848;9.620;2022-12-10T11:53:26;98699.47;;;9.35;45.72
61742;BME280;47650;49.848;9.620;2022-12-10T11:56:24;98691.28;;;9.63;45.09
61742;BME280;47650;49.848;9.620;2022-12-10T11:59:21;98694.91;;;9.62;45.00
61742;BME280;47650;49.848;9.620;2022-12-10T12:02:00;98688.06;;;10.51;43.85
61742;BME280;47650;49.848;9.620;2022-12-10T12:12:59;98685.00;;;11.66;39.08
61742;BME280;47650;49.848;9.620;2022-12-10T12:15:50;98678.81;;;12.05;39.60
61742;BME280;47650;49.848;9.620;2022-12-10T12:21:13;98689.81;;;11.31;40.31
61742;BME280;47650;49.848;9.620;2022-12-10T12:24:21;98698.50;;;11.25;40.38
61742;BME280;47650;49.848;9.620;2022-12-10T12:26:40;98697.25;;;10.96;39.78
61742;BME280;47650;49.848;9.620;2022-12-10T12:29:18;98697.34;;;10.39;41.46
61742;BME280;47650;49.848;9.620;2022-12-10T12:31:56;98705.59;;;10.11;42.66
61742;BME280;47650;49.848;9.620;2022-12-10T12:37:16;98727.72;;;7.94;47.56
61742;BME280;47650;49.848;9.620;2022-12-10T12:39:53;98702.84;;;7.32;49.20
61742;BME280;47650;49.848;9.620;2022-12-10T12:42:24;98733.19;;;7.37;50.66
61742;BME280;47650;49.848;9.620;2022-12-10T12:45:03;98723.06;;;6.67;52.79
61742;BME280;47650;49.848;9.620;2022-12-10T12:47:56;98740.94;;;5.85;55.63
61742;BME280;47650;49.848;9.620;2022-12-10T12:53:20;98753.69;;;4.57;62.71
61742;BME280;47650;49.848;9.620;2022-12-10T12:56:05;98740.13;;;3.54;65.91
61742;BME280;47650;49.848;9.620;2022-12-10T12:58:42;98759.78;;;3.60;67.60
61742;BME280;47650;49.848;9.620;2022-12-10T13:01:30;98767.97;;;3.67;67.00
61742;BME280;47650;49.848;9.620;2022-12-10T13:04:00;98741.31;;;3.62;67.47
61742;BME280;47650;49.848;9.620;2022-12-10T13:06:31;98765.66;;;3.07;69.74
61742;BME280;47650;49.848;9.620;2022-12-10T13:11:42;98765.53;;;3.09;71.72
61742;BME280;47650;49.848;9.620;2022-12-10T13:19:27;98771.56;;;2.87;72.67
61742;BME280;47650;49.848;9.620;2022-12-10T13:22:54;98776.31;;;2.70;73.96
61742;BME280;47650;49.848;9.620;2022-12-10T13:24:48;98772.78;;;2.94;73.55
61742;BME280;47650;49.848;9.620;2022-12-10T13:27:31;98778.06;;;2.23;75.67
61742;BME280;47650;49.848;9.620;2022-12-10T13:32:46;98782.81;;;3.23;74.63
61742;BME280;47650;49.848;9.620;2022-12-10T13:40:38;98788.84;;;3.68;69.98
61742;BME280;47650;49.848;9.620;2022-12-10T13:43:35;98779.09;;;3.59;70.74
61742;BME280;47650;49.848;9.620;2022-12-10T13:46:26;98776.09;;;3.64;70.72
61742;BME280;47650;49.848;9.620;2022-12-10T13:48:54;98780.56;;;3.95;70.87
61742;BME280;47650;49.848;9.620;2022-12-10T13:51:47;98788.66;;;4.04;69.08
61742;BME280;47650;49.848;9.620;2022-12-10T14:00:01;98802.72;;;4.35;67.50
61742;BME280;47650;49.848;9.620;2022-12-10T14:02:47;98799.94;;;4.16;65.71
61742;BME280;47650;49.848;9.620;2022-12-10T14:07:48;98810.97;;;4.30;66.51
61742;BME280;47650;49.848;9.620;2022-12-10T14:10:17;98811.25;;;4.16;65.29
61742;BME280;47650;49.848;9.620;2022-12-10T14:12:45;98813.06;;;4.16;65.80
61742;BME280;47650;49.848;9.620;2022-12-10T14:15:22;98822.97;;;4.12;65.96
61742;BME280;47650;49.848;9.620;2022-12-10T14:17:59;98815.97;;;4.33;66.28
61742;BME280;47650;49.848;9.620;2022-12-10T14:20:25;98822.84;;;4.46;66.16
61742;BME280;47650;49.848;9.620;2022-12-10T14:22:53;98827.81;;;4.60;66.64
61742;BME280;47650;49.848;9.620;2022-12-10T14:25:45;98830.94;;;4.75;66.43
61742;BME280;47650;49.848;9.620;2022-12-10T14:28:16;98831.00;;;4.85;66.20
61742;BME280;47650;49.848;9.620;2022-12-10T14:30:44;98834.78;;;4.92;65.58
61742;BME280;47650;49.848;9.620;2022-12-10T14:33:23;98821.69;;;4.81;65.45
61742;BME280;47650;49.848;9.620;2022-12-10T14:35:50;98845.50;;;5.00;65.63
61742;BME280;47650;49.848;9.620;2022-12-10T14:38:23;98839.38;;;5.00;65.05
61742;BME280;47650;49.848;9.620;2022-12-10T14:40:53;98846.19;;;5.02;64.81
61742;BME280;47650;49.848;9.620;2022-12-10T14:43:27;98845.94;;;5.05;65.80
61742;BME280;47650;49.848;9.620;2022-12-10T14:45:57;98851.81;;;4.98;64.63
61742;BME280;47650;49.848;9.620;2022-12-10T14:48:55;98860.28;;;4.80;64.39
61742;BME280;47650;49.848;9.620;2022-12-10T14:51:25;98856.22;;;4.55;65.58